createdAt,value
2017-12-21T00:00:03.819Z,5.20
2017-12-21T00:02:31.311Z,5.20
2017-12-21T00:04:58.812Z,5.20
2017-12-21T00:07:27.059Z,5.20
2017-12-21T00:09:54.570Z,5.20
2017-12-21T00:12:22.067Z,5.30
2017-12-21T00:14:49.569Z,5.30
2017-12-21T00:17:17.047Z,5.20
2017-12-21T00:19:44.556Z,5.30
2017-12-21T00:22:12.040Z,5.30
2017-12-21T00:24:39.523Z,5.20
2017-12-21T00:27:07.851Z,5.30
2017-12-21T00:29:35.348Z,5.30
2017-12-21T00:32:02.891Z,5.30
2017-12-21T00:34:30.372Z,5.20
2017-12-21T00:36:57.884Z,5.20
2017-12-21T00:39:26.135Z,5.30
2017-12-21T00:41:54.408Z,5.30
2017-12-21T00:44:21.948Z,5.20
2017-12-21T00:46:49.460Z,5.40
2017-12-21T00:49:16.943Z,5.30
2017-12-21T00:51:45.214Z,5.30
2017-12-21T00:54:12.711Z,5.20
2017-12-21T00:56:40.229Z,5.20
2017-12-21T00:59:07.720Z,5.30
2017-12-21T01:01:35.228Z,5.20
2017-12-21T01:04:02.726Z,5.20
2017-12-21T01:06:30.233Z,5.20
2017-12-21T01:08:57.720Z,5.20
2017-12-21T01:11:25.987Z,5.20
2017-12-21T01:13:53.477Z,5.10
2017-12-21T01:16:21.760Z,5.20
2017-12-21T01:18:50.032Z,5.10
2017-12-21T01:21:17.536Z,5.10
2017-12-21T01:23:45.790Z,5.20
2017-12-21T01:26:13.287Z,5.20
2017-12-21T01:28:41.565Z,5.20
2017-12-21T01:31:09.823Z,5.20
2017-12-21T01:33:37.327Z,5.20
2017-12-21T01:36:05.583Z,5.30
2017-12-21T01:38:33.094Z,5.20
2017-12-21T01:41:01.340Z,5.30
2017-12-21T01:43:28.849Z,5.20
2017-12-21T01:45:57.099Z,5.30
2017-12-21T01:48:24.605Z,5.30
2017-12-21T01:50:52.856Z,5.30
2017-12-21T01:53:20.355Z,5.20
2017-12-21T01:55:47.834Z,5.30
2017-12-21T01:58:16.112Z,5.30
2017-12-21T02:00:43.598Z,5.20
2017-12-21T02:03:11.867Z,5.30
2017-12-21T02:05:39.343Z,5.20
2017-12-21T02:08:07.628Z,5.30
2017-12-21T02:10:35.123Z,5.20
2017-12-21T02:13:02.636Z,5.20
2017-12-21T02:15:30.140Z,5.30
2017-12-21T02:17:57.655Z,5.30
2017-12-21T02:20:25.920Z,5.30
2017-12-21T02:22:53.437Z,5.30
2017-12-21T02:25:20.916Z,5.40
2017-12-21T02:27:48.402Z,5.30
2017-12-21T02:30:15.923Z,5.40
2017-12-21T02:32:43.429Z,5.40
2017-12-21T02:35:11.002Z,5.40
2017-12-21T02:37:38.585Z,5.40
2017-12-21T02:40:06.120Z,5.40
2017-12-21T02:42:33.616Z,5.50
2017-12-21T02:45:01.117Z,5.40
2017-12-21T02:47:29.384Z,5.40
2017-12-21T02:49:56.897Z,5.40
2017-12-21T02:52:24.385Z,5.40
2017-12-21T02:54:51.887Z,5.40
2017-12-21T02:57:19.488Z,5.40
2017-12-21T02:59:47.759Z,5.40
2017-12-21T03:02:15.240Z,5.30
2017-12-21T03:04:43.516Z,5.40
2017-12-21T03:07:11.012Z,5.40
2017-12-21T03:09:39.287Z,5.40
2017-12-21T03:12:07.557Z,5.40
2017-12-21T03:14:35.079Z,5.40
2017-12-21T03:17:02.581Z,5.40
2017-12-21T03:19:30.100Z,5.50
2017-12-21T03:21:57.592Z,5.40
2017-12-21T03:24:25.080Z,5.40
2017-12-21T03:26:52.627Z,5.50
2017-12-21T03:29:20.119Z,5.40
2017-12-21T03:31:47.861Z,5.40
2017-12-21T03:34:15.348Z,5.40
2017-12-21T03:36:42.851Z,5.40
2017-12-21T03:39:10.336Z,5.40
2017-12-21T03:41:37.842Z,5.40
2017-12-21T03:44:05.331Z,5.40
2017-12-21T03:46:32.844Z,5.40
2017-12-21T03:49:00.332Z,5.40
2017-12-21T03:51:27.831Z,5.30
2017-12-21T03:53:55.312Z,5.30
2017-12-21T03:56:22.812Z,5.30
2017-12-21T03:58:50.336Z,5.40
2017-12-21T04:01:17.853Z,5.30
2017-12-21T04:03:45.341Z,5.30
2017-12-21T04:06:12.849Z,5.40
2017-12-21T04:08:40.331Z,5.40
2017-12-21T04:11:07.835Z,5.40
2017-12-21T04:13:35.327Z,5.40
2017-12-21T04:16:02.847Z,5.40
2017-12-21T04:18:30.336Z,5.30
2017-12-21T04:20:57.844Z,5.30
2017-12-21T04:23:26.103Z,5.40
2017-12-21T04:25:53.626Z,5.30
2017-12-21T04:28:21.882Z,5.40
2017-12-21T04:30:49.416Z,5.30
2017-12-21T04:33:16.926Z,5.40
2017-12-21T04:35:44.415Z,5.30
2017-12-21T04:38:12.896Z,5.30
2017-12-21T04:40:40.387Z,5.30
2017-12-21T04:43:07.910Z,5.30
2017-12-21T04:45:35.400Z,5.30
2017-12-21T04:48:02.930Z,5.30
2017-12-21T04:50:30.503Z,5.40
2017-12-21T04:52:58.036Z,5.40
2017-12-21T04:55:26.288Z,5.50
2017-12-21T04:57:53.825Z,5.40
2017-12-21T05:00:21.468Z,5.50
2017-12-21T05:02:49.184Z,5.50
2017-12-21T05:05:16.791Z,5.40
2017-12-21T05:07:44.340Z,5.40
2017-12-21T05:10:11.840Z,5.40
2017-12-21T05:12:39.341Z,5.50
2017-12-21T05:15:06.838Z,5.50
2017-12-21T05:17:34.425Z,5.50
2017-12-21T05:20:01.934Z,5.50
2017-12-21T05:22:30.219Z,5.50
2017-12-21T05:24:57.728Z,5.40
2017-12-21T05:27:25.232Z,5.50
2017-12-21T05:29:52.739Z,5.50
2017-12-21T05:32:20.239Z,5.60
2017-12-21T05:34:47.755Z,5.60
2017-12-21T05:37:15.243Z,5.50
2017-12-21T05:39:42.772Z,5.50
2017-12-21T05:42:10.276Z,5.50
2017-12-21T05:44:37.795Z,5.50
2017-12-21T05:47:05.297Z,5.60
2017-12-21T05:49:32.808Z,5.50
2017-12-21T05:52:01.059Z,5.60
2017-12-21T05:54:28.569Z,5.50
2017-12-21T05:56:56.055Z,5.60
2017-12-21T05:59:23.574Z,5.50
2017-12-21T06:01:51.056Z,5.50
2017-12-21T06:04:18.564Z,5.50
2017-12-21T06:06:46.075Z,5.50
2017-12-21T06:09:13.591Z,5.50
2017-12-21T06:11:41.087Z,5.50
2017-12-21T06:14:08.592Z,5.60
2017-12-21T06:16:36.084Z,5.50
2017-12-21T06:19:04.376Z,5.60
2017-12-21T06:21:32.640Z,5.60
2017-12-21T06:24:00.135Z,5.60
2017-12-21T06:26:28.421Z,5.50
2017-12-21T06:28:56.689Z,5.50
2017-12-21T06:31:24.209Z,5.50
2017-12-21T06:33:51.697Z,5.50
2017-12-21T06:36:19.216Z,5.50
2017-12-21T06:38:46.703Z,5.60
2017-12-21T06:41:14.971Z,5.60
2017-12-21T06:43:42.460Z,5.50
2017-12-21T06:46:10.740Z,5.50
2017-12-21T06:48:39.003Z,5.60
2017-12-21T06:51:06.507Z,5.50
2017-12-21T06:53:34.811Z,5.60
2017-12-21T06:56:02.296Z,5.60
2017-12-21T06:58:29.798Z,5.60
2017-12-21T07:00:57.309Z,5.60
2017-12-21T07:03:24.812Z,5.70
2017-12-21T07:05:52.345Z,5.70
2017-12-21T07:08:20.591Z,5.60
2017-12-21T07:10:48.100Z,5.60
2017-12-21T07:13:16.356Z,5.70
2017-12-21T07:15:43.872Z,5.60
2017-12-21T07:18:11.367Z,5.70
2017-12-21T07:20:38.878Z,5.60
2017-12-21T07:23:06.384Z,5.60
2017-12-21T07:25:33.907Z,5.60
2017-12-21T07:28:01.399Z,5.70
2017-12-21T07:30:28.891Z,5.60
2017-12-21T07:32:56.412Z,5.60
2017-12-21T07:35:23.904Z,5.50
2017-12-21T07:37:51.420Z,5.50
2017-12-21T07:40:18.927Z,5.60
2017-12-21T07:42:46.443Z,5.60
2017-12-21T07:45:13.931Z,5.60
2017-12-21T07:47:41.432Z,5.60
2017-12-21T07:50:08.916Z,5.70
2017-12-21T07:52:36.415Z,5.70
2017-12-21T07:55:04.665Z,5.70
2017-12-21T07:57:32.199Z,5.70
2017-12-21T07:59:59.728Z,5.70
2017-12-21T08:02:27.229Z,5.70
2017-12-21T08:04:54.713Z,5.70
2017-12-21T08:07:22.234Z,5.70
2017-12-21T08:09:49.728Z,5.70
2017-12-21T08:12:18.006Z,5.80
2017-12-21T08:14:46.265Z,5.90
2017-12-21T08:17:13.787Z,5.80
2017-12-21T08:19:41.279Z,5.90
2017-12-21T08:22:08.764Z,5.90
2017-12-21T08:24:36.272Z,5.90
2017-12-21T08:27:04.527Z,5.90
2017-12-21T08:29:32.040Z,5.80
2017-12-21T08:32:00.305Z,5.90
2017-12-21T08:34:27.819Z,5.80
2017-12-21T08:36:55.303Z,5.90
2017-12-21T08:39:22.816Z,5.80
2017-12-21T08:41:50.311Z,5.80
2017-12-21T08:44:18.605Z,5.80
2017-12-21T08:46:46.923Z,5.80
2017-12-21T08:49:14.430Z,5.80
2017-12-21T08:51:41.915Z,5.80
2017-12-21T08:54:09.424Z,5.90
2017-12-21T08:56:36.924Z,5.90
2017-12-21T08:59:04.428Z,5.90
2017-12-21T09:01:31.911Z,5.90
2017-12-21T09:04:00.176Z,6.00
2017-12-21T09:06:27.674Z,5.90
2017-12-21T09:08:55.191Z,6.00
2017-12-21T09:11:22.685Z,6.00
2017-12-21T09:13:50.613Z,6.00
2017-12-21T09:16:18.115Z,6.00
2017-12-21T09:18:45.627Z,6.00
2017-12-21T09:21:13.900Z,5.90
2017-12-21T09:23:41.389Z,5.90
2017-12-21T09:26:09.662Z,5.90
2017-12-21T09:28:37.147Z,5.90
2017-12-21T09:31:05.421Z,6.00
2017-12-21T09:33:32.921Z,5.90
2017-12-21T09:36:00.435Z,5.90
2017-12-21T09:38:27.919Z,5.90
2017-12-21T09:40:55.426Z,5.90
2017-12-21T09:43:23.679Z,5.90
2017-12-21T09:45:51.188Z,5.90
2017-12-21T09:48:18.676Z,5.90
2017-12-21T09:50:46.175Z,5.90
2017-12-21T09:53:13.660Z,5.90
2017-12-21T09:55:41.163Z,5.90
2017-12-21T09:58:09.411Z,5.90
2017-12-21T10:00:36.920Z,5.80
2017-12-21T10:03:05.176Z,5.90
2017-12-21T10:05:32.692Z,5.80
2017-12-21T10:08:00.175Z,5.90
2017-12-21T10:10:27.679Z,5.90
2017-12-21T10:12:55.163Z,5.90
2017-12-21T10:15:22.689Z,5.90
2017-12-21T10:17:50.185Z,5.90
2017-12-21T10:20:17.667Z,5.90
2017-12-21T10:22:45.180Z,6.00
2017-12-21T10:25:12.706Z,6.00
2017-12-21T10:27:40.214Z,6.00
2017-12-21T10:30:08.468Z,6.10
2017-12-21T10:32:35.983Z,6.00
2017-12-21T10:35:03.472Z,6.10
2017-12-21T10:37:30.981Z,6.20
2017-12-21T10:39:58.479Z,6.20
2017-12-21T10:42:26.743Z,6.20
2017-12-21T10:44:54.222Z,6.10
2017-12-21T10:47:21.727Z,6.20
2017-12-21T10:49:49.207Z,6.20
2017-12-21T10:52:16.734Z,6.20
2017-12-21T10:54:44.996Z,6.20
2017-12-21T10:57:12.508Z,6.20
2017-12-21T10:59:40.764Z,6.30
2017-12-21T11:02:08.272Z,6.30
2017-12-21T11:04:36.523Z,6.40
2017-12-21T11:07:04.024Z,6.30
2017-12-21T11:09:32.276Z,6.30
2017-12-21T11:11:59.783Z,6.30
2017-12-21T11:14:28.036Z,6.40
2017-12-21T11:16:55.539Z,6.30
2017-12-21T11:19:23.804Z,6.30
2017-12-21T11:21:51.292Z,6.30
2017-12-21T11:24:19.572Z,6.30
2017-12-21T11:26:47.056Z,6.30
2017-12-21T11:29:15.332Z,6.30
2017-12-21T11:31:42.815Z,6.30
2017-12-21T11:34:11.089Z,6.30
2017-12-21T11:36:38.575Z,6.30
2017-12-21T11:39:06.848Z,6.30
2017-12-21T11:41:34.340Z,6.30
2017-12-21T11:44:02.616Z,6.30
2017-12-21T11:46:30.868Z,6.30
2017-12-21T11:48:58.375Z,6.30
2017-12-21T11:51:26.623Z,6.30
2017-12-21T11:53:54.140Z,6.30
2017-12-21T11:56:22.389Z,6.30
2017-12-21T11:58:49.887Z,6.30
2017-12-21T12:01:18.152Z,6.30
2017-12-21T12:03:45.651Z,6.30
2017-12-21T12:06:13.927Z,6.40
2017-12-21T12:08:41.428Z,6.30
2017-12-21T12:11:08.911Z,6.40
2017-12-21T12:13:36.436Z,6.40
2017-12-21T12:16:03.931Z,6.50
2017-12-21T12:18:31.435Z,6.50
2017-12-21T12:20:58.924Z,6.50
2017-12-21T12:23:26.400Z,6.60
2017-12-21T12:25:53.906Z,6.50
2017-12-21T12:28:21.428Z,6.50
2017-12-21T12:30:48.947Z,6.50
2017-12-21T12:33:17.208Z,6.60
2017-12-21T12:35:44.729Z,6.60
2017-12-21T12:38:12.252Z,6.60
2017-12-21T12:40:39.767Z,6.60
2017-12-21T12:43:07.247Z,6.50
2017-12-21T12:45:34.756Z,6.50
2017-12-21T12:48:02.259Z,6.50
2017-12-21T12:50:30.535Z,6.60
2017-12-21T12:52:58.784Z,6.60
2017-12-21T12:55:26.284Z,6.50
2017-12-21T12:57:54.547Z,6.60
2017-12-21T13:00:22.047Z,6.50
2017-12-21T13:02:49.545Z,6.50
2017-12-21T13:05:17.057Z,6.50
2017-12-21T13:07:44.544Z,6.50
2017-12-21T13:10:12.053Z,6.60
2017-12-21T13:12:39.548Z,6.60
2017-12-21T13:15:07.050Z,6.60
2017-12-21T13:17:34.535Z,6.60
2017-12-21T13:20:02.020Z,6.60
2017-12-21T13:22:30.292Z,6.60
2017-12-21T13:24:57.772Z,6.60
2017-12-21T13:27:26.052Z,6.70
2017-12-21T13:29:53.543Z,6.60
2017-12-21T13:32:21.809Z,6.60
2017-12-21T13:34:49.299Z,6.60
2017-12-21T13:37:17.568Z,6.60
2017-12-21T13:39:45.048Z,6.60
2017-12-21T13:42:13.315Z,6.60
2017-12-21T13:44:40.803Z,6.60
2017-12-21T13:47:09.079Z,6.60
2017-12-21T13:49:36.567Z,6.50
2017-12-21T13:52:04.838Z,6.60
2017-12-21T13:54:32.336Z,6.60
2017-12-21T13:57:00.596Z,6.60
2017-12-21T13:59:28.083Z,6.60
2017-12-21T14:01:56.356Z,6.60
2017-12-21T14:04:23.835Z,6.60
2017-12-21T14:06:52.472Z,6.70
2017-12-21T14:09:19.951Z,6.60
2017-12-21T14:11:47.455Z,6.70
2017-12-21T14:14:14.944Z,6.70
2017-12-21T14:16:43.223Z,6.70
2017-12-21T14:19:10.712Z,6.70
2017-12-21T14:21:38.964Z,6.80
2017-12-21T14:24:06.461Z,6.70
2017-12-21T14:26:34.719Z,6.80
2017-12-21T14:29:02.232Z,6.80
2017-12-21T14:31:30.487Z,6.70
2017-12-21T14:33:58.002Z,6.70
2017-12-21T14:36:25.605Z,6.70
2017-12-21T14:38:53.108Z,6.70
2017-12-21T14:41:20.592Z,6.70
2017-12-21T14:43:48.862Z,6.80
2017-12-21T14:46:16.352Z,6.70
2017-12-21T14:48:44.620Z,6.70
2017-12-21T14:51:12.101Z,6.70
2017-12-21T14:53:39.608Z,6.70
2017-12-21T14:56:07.099Z,6.80
2017-12-21T14:58:34.608Z,6.80
2017-12-21T15:01:02.456Z,6.80
2017-12-21T15:03:29.960Z,6.80
2017-12-21T15:05:57.447Z,6.80
2017-12-21T15:08:25.719Z,6.80
2017-12-21T15:10:53.203Z,6.80
2017-12-21T15:13:21.468Z,6.80
2017-12-21T15:15:48.956Z,6.70
2017-12-21T15:18:17.239Z,6.80
2017-12-21T15:20:44.730Z,6.80
2017-12-21T15:23:12.225Z,6.80
2017-12-21T15:25:39.737Z,6.80
2017-12-21T15:28:07.226Z,6.80
2017-12-21T15:30:35.500Z,6.80
2017-12-21T15:33:02.987Z,6.70
2017-12-21T15:35:31.260Z,6.80
2017-12-21T15:37:58.752Z,6.80
2017-12-21T15:40:26.265Z,6.80
2017-12-21T15:42:53.756Z,6.80
2017-12-21T15:45:21.263Z,6.80
2017-12-21T15:47:49.508Z,6.80
2017-12-21T15:50:17.017Z,6.80
2017-12-21T15:52:45.268Z,6.90
2017-12-21T15:55:12.775Z,6.80
2017-12-21T15:57:41.024Z,7.00
2017-12-21T16:00:08.523Z,6.90
2017-12-21T16:02:36.008Z,6.90
2017-12-21T16:05:03.530Z,6.90
2017-12-21T16:07:31.060Z,6.90
2017-12-21T16:09:58.568Z,6.90
2017-12-21T16:12:26.057Z,6.90
2017-12-21T16:14:53.559Z,7.00
2017-12-21T16:17:21.812Z,6.90
2017-12-21T16:19:49.431Z,6.80
2017-12-21T16:22:16.915Z,6.90
2017-12-21T16:24:44.416Z,6.90
2017-12-21T16:27:11.928Z,6.90
2017-12-21T16:29:40.179Z,7.00
2017-12-21T16:32:07.704Z,6.90
2017-12-21T16:34:35.200Z,7.10
2017-12-21T16:37:02.704Z,7.00
2017-12-21T16:39:30.187Z,6.90
2017-12-21T16:41:57.688Z,6.90
2017-12-21T16:44:25.178Z,6.90
2017-12-21T16:46:52.691Z,6.90
2017-12-21T16:49:20.176Z,6.90
2017-12-21T16:51:48.452Z,6.80
2017-12-21T16:54:15.931Z,6.70
2017-12-21T16:56:44.200Z,6.90
2017-12-21T16:59:11.691Z,6.80
2017-12-21T17:01:39.963Z,6.90
2017-12-21T17:04:07.466Z,6.80
2017-12-21T17:06:34.987Z,6.80
2017-12-21T17:09:02.470Z,6.90
2017-12-21T17:11:29.984Z,6.90
2017-12-21T17:13:57.471Z,6.90
2017-12-21T17:16:24.980Z,7.00
2017-12-21T17:18:52.459Z,7.00
2017-12-21T17:21:19.965Z,7.00
2017-12-21T17:23:47.452Z,7.00
2017-12-21T17:26:15.727Z,7.00
2017-12-21T17:28:43.216Z,6.90
2017-12-21T17:31:10.705Z,7.00
2017-12-21T17:33:38.203Z,7.10
2017-12-21T17:36:05.687Z,7.00
2017-12-21T17:38:33.957Z,7.00
2017-12-21T17:41:01.801Z,7.00
2017-12-21T17:43:29.305Z,7.00
2017-12-21T17:45:56.796Z,7.00
2017-12-21T17:48:25.064Z,7.00
2017-12-21T17:50:52.566Z,7.00
2017-12-21T17:53:20.076Z,7.00
2017-12-21T17:55:47.572Z,7.00
2017-12-21T17:58:15.097Z,7.00
2017-12-21T18:00:42.584Z,7.00
2017-12-21T18:03:10.096Z,7.00
2017-12-21T18:05:38.356Z,7.00
2017-12-21T18:08:05.858Z,7.00
2017-12-21T18:10:34.103Z,7.00
2017-12-21T18:13:01.611Z,7.00
2017-12-21T18:15:29.863Z,7.00
2017-12-21T18:17:57.372Z,7.00
2017-12-21T18:20:25.627Z,7.10
2017-12-21T18:22:53.151Z,7.00
2017-12-21T18:25:20.631Z,7.00
2017-12-21T18:27:48.132Z,7.00
2017-12-21T18:30:15.641Z,7.00
2017-12-21T18:32:43.893Z,7.00
2017-12-21T18:35:11.400Z,7.00
2017-12-21T18:37:39.655Z,7.10
2017-12-21T18:40:07.198Z,7.00
2017-12-21T18:42:34.679Z,7.10
2017-12-21T18:45:03.667Z,7.00
2017-12-21T18:47:31.143Z,7.00
2017-12-21T18:49:58.652Z,7.10
2017-12-21T18:52:26.147Z,7.10
2017-12-21T18:54:54.415Z,7.10
2017-12-21T18:57:21.920Z,7.00
2017-12-21T18:59:49.439Z,7.10
2017-12-21T19:02:16.927Z,7.10
2017-12-21T19:04:44.428Z,7.10
2017-12-21T19:07:12.679Z,7.10
2017-12-21T19:09:40.175Z,7.10
2017-12-21T19:12:08.419Z,7.10
2017-12-21T19:14:35.929Z,7.10
2017-12-21T19:17:03.431Z,7.10
2017-12-21T19:19:30.928Z,7.10
2017-12-21T19:21:58.413Z,7.00
2017-12-21T19:24:25.931Z,7.10
2017-12-21T19:26:53.419Z,7.10
2017-12-21T19:29:20.910Z,7.20
2017-12-21T19:31:48.421Z,7.10
2017-12-21T19:34:16.672Z,7.10
2017-12-21T19:36:44.193Z,7.00
2017-12-21T19:39:12.444Z,7.00
2017-12-21T19:41:39.948Z,7.00
2017-12-21T19:44:07.456Z,7.10
2017-12-21T19:46:34.964Z,7.10
2017-12-21T19:49:02.452Z,7.10
2017-12-21T19:51:29.979Z,7.00
2017-12-21T19:53:57.459Z,7.10
2017-12-21T19:56:24.968Z,7.10
2017-12-21T19:58:53.234Z,7.10
2017-12-21T20:01:20.739Z,7.10
2017-12-21T20:03:48.239Z,7.10
2017-12-21T20:06:15.762Z,7.10
2017-12-21T20:08:44.020Z,7.10
2017-12-21T20:11:11.544Z,7.10
2017-12-21T20:13:39.044Z,7.10
2017-12-21T20:16:06.577Z,7.10
2017-12-21T20:18:34.067Z,7.10
2017-12-21T20:21:01.553Z,7.10
2017-12-21T20:23:29.059Z,7.10
2017-12-21T20:25:56.541Z,7.10
2017-12-21T20:28:24.039Z,7.10
2017-12-21T20:30:51.531Z,7.20
2017-12-21T20:33:19.036Z,7.20
2017-12-21T20:35:46.524Z,7.10
2017-12-21T20:38:14.796Z,7.10
2017-12-21T20:40:42.279Z,7.10
2017-12-21T20:43:10.567Z,7.20
2017-12-21T20:45:38.813Z,7.30
2017-12-21T20:48:06.317Z,7.20
2017-12-21T20:50:33.802Z,7.30
2017-12-21T20:53:02.067Z,7.20
2017-12-21T20:55:29.551Z,7.20
2017-12-21T20:57:57.816Z,7.30
2017-12-21T21:00:25.351Z,7.30
2017-12-21T21:02:52.863Z,7.30
2017-12-21T21:05:20.343Z,7.30
2017-12-21T21:07:47.857Z,7.30
2017-12-21T21:10:15.347Z,7.30
2017-12-21T21:12:42.848Z,7.30
2017-12-21T21:15:10.336Z,7.20
2017-12-21T21:17:38.627Z,7.30
2017-12-21T21:20:06.878Z,7.20
2017-12-21T21:22:34.368Z,7.20
2017-12-21T21:25:01.878Z,7.30
2017-12-21T21:27:29.364Z,7.20
2017-12-21T21:29:56.874Z,7.20
2017-12-21T21:32:24.359Z,7.20
2017-12-21T21:34:52.640Z,7.20
2017-12-21T21:37:20.128Z,7.10
2017-12-21T21:39:48.399Z,7.20
2017-12-21T21:42:15.885Z,7.10
2017-12-21T21:44:44.148Z,7.20
2017-12-21T21:47:11.641Z,7.10
2017-12-21T21:49:39.904Z,7.20
2017-12-21T21:52:07.393Z,7.10
2017-12-21T21:54:35.661Z,7.10
2017-12-21T21:57:03.152Z,7.10
2017-12-21T21:59:31.447Z,7.10
2017-12-21T22:01:59.697Z,7.20
2017-12-21T22:04:27.204Z,7.10
2017-12-21T22:06:55.456Z,7.10
2017-12-21T22:09:22.960Z,7.10
2017-12-21T22:11:51.216Z,7.10
2017-12-21T22:14:18.715Z,7.10
2017-12-21T22:16:46.960Z,7.10
2017-12-21T22:19:14.445Z,7.10
2017-12-21T22:21:41.944Z,7.10
2017-12-21T22:24:10.192Z,7.20
2017-12-21T22:26:37.699Z,7.10
2017-12-21T22:29:05.175Z,7.20
2017-12-21T22:31:33.445Z,7.30
2017-12-21T22:34:00.937Z,7.20
2017-12-21T22:36:29.203Z,7.20
2017-12-21T22:38:56.760Z,7.10
2017-12-21T22:41:24.217Z,7.20
2017-12-21T22:43:51.708Z,7.10
2017-12-21T22:46:19.207Z,7.10
2017-12-21T22:48:47.453Z,7.10
2017-12-21T22:51:14.951Z,7.00
2017-12-21T22:53:42.436Z,7.10
2017-12-21T22:56:10.706Z,7.10
2017-12-21T22:58:38.188Z,7.10
2017-12-21T23:01:06.447Z,7.10
2017-12-21T23:03:33.936Z,7.10
2017-12-21T23:06:01.440Z,7.10
2017-12-21T23:08:28.969Z,7.10
2017-12-21T23:10:56.435Z,7.10
2017-12-21T23:13:23.916Z,7.10
2017-12-21T23:15:51.415Z,7.10
2017-12-21T23:18:18.896Z,7.10
2017-12-21T23:20:46.388Z,7.00
2017-12-21T23:23:13.871Z,7.00
2017-12-21T23:25:41.359Z,7.00
2017-12-21T23:28:08.856Z,7.10
2017-12-21T23:30:37.115Z,7.10
2017-12-21T23:33:04.629Z,7.00
2017-12-21T23:35:32.116Z,7.10
2017-12-21T23:37:59.621Z,7.10
2017-12-21T23:40:27.107Z,7.00
2017-12-21T23:42:55.380Z,7.10
2017-12-21T23:45:22.869Z,7.00
2017-12-21T23:47:51.131Z,7.10
2017-12-21T23:50:18.616Z,7.10
2017-12-21T23:52:46.124Z,7.00
2017-12-21T23:55:13.651Z,7.00
2017-12-21T23:57:41.152Z,7.00
